sensor_id;sensor_type;location;lat;lon;timestamp;P1;durP1;ratioP1;P2;durP2;ratioP2
19664;SDS011;9980;51.020;7.772;2024-03-23T00:54:40;2.67;;;2.43;;
19664;SDS011;9980;51.020;7.772;2024-03-23T00:57:06;2.97;;;2.77;;
19664;SDS011;9980;51.020;7.772;2024-03-23T00:59:32;4.37;;;3.10;;
19664;SDS011;9980;51.020;7.772;2024-03-23T01:01:58;3.60;;;3.30;;
19664;SDS011;9980;51.020;7.772;2024-03-23T01:04:24;3.67;;;3.37;;
19664;SDS011;9980;51.020;7.772;2024-03-23T01:06:50;3.43;;;3.13;;
19664;SDS011;9980;51.020;7.772;2024-03-23T01:09:16;3.40;;;3.10;;
19664;SDS011;9980;51.020;7.772;2024-03-23T01:11:42;4.17;;;3.60;;
19664;SDS011;9980;51.020;7.772;2024-03-23T01:14:08;3.40;;;3.10;;
19664;SDS011;9980;51.020;7.772;2024-03-23T01:16:34;4.50;;;3.37;;
19664;SDS011;9980;51.020;7.772;2024-03-23T01:19:00;4.37;;;3.47;;
19664;SDS011;9980;51.020;7.772;2024-03-23T01:21:26;3.70;;;3.40;;
19664;SDS011;9980;51.020;7.772;2024-03-23T01:23:52;3.40;;;3.10;;
19664;SDS011;9980;51.020;7.772;2024-03-23T01:26:17;3.67;;;3.33;;
19664;SDS011;9980;51.020;7.772;2024-03-23T01:28:43;3.83;;;3.40;;
19664;SDS011;9980;51.020;7.772;2024-03-23T01:31:09;8.57;;;3.93;;
19664;SDS011;9980;51.020;7.772;2024-03-23T01:33:35;3.83;;;3.43;;
19664;SDS011;9980;51.020;7.772;2024-03-23T01:36:01;3.50;;;3.20;;
19664;SDS011;9980;51.020;7.772;2024-03-23T01:38:28;4.23;;;3.47;;
19664;SDS011;9980;51.020;7.772;2024-03-23T01:40:57;3.50;;;3.20;;
19664;SDS011;9980;51.020;7.772;2024-03-23T01:43:23;3.73;;;3.30;;
19664;SDS011;9980;51.020;7.772;2024-03-23T01:45:50;3.33;;;3.00;;
19664;SDS011;9980;51.020;7.772;2024-03-23T01:48:19;3.73;;;3.40;;
19664;SDS011;9980;51.020;7.772;2024-03-23T01:50:46;3.53;;;2.93;;
19664;SDS011;9980;51.020;7.772;2024-03-23T01:53:13;3.80;;;3.47;;
19664;SDS011;9980;51.020;7.772;2024-03-23T01:55:43;3.83;;;3.40;;
19664;SDS011;9980;51.020;7.772;2024-03-23T01:58:09;3.50;;;3.00;;
19664;SDS011;9980;51.020;7.772;2024-03-23T02:00:35;4.60;;;3.13;;
19664;SDS011;9980;51.020;7.772;2024-03-23T02:03:02;2.97;;;2.77;;
19664;SDS011;9980;51.020;7.772;2024-03-23T02:05:47;3.60;;;3.30;;
19664;SDS011;9980;51.020;7.772;2024-03-23T02:08:13;2.90;;;2.70;;
19664;SDS011;9980;51.020;7.772;2024-03-23T02:10:39;10.17;;;3.13;;
19664;SDS011;9980;51.020;7.772;2024-03-23T02:13:05;4.83;;;2.80;;
19664;SDS011;9980;51.020;7.772;2024-03-23T02:15:31;2.90;;;2.60;;
19664;SDS011;9980;51.020;7.772;2024-03-23T02:17:59;2.90;;;2.70;;
19664;SDS011;9980;51.020;7.772;2024-03-23T02:20:25;3.40;;;3.10;;
19664;SDS011;9980;51.020;7.772;2024-03-23T02:22:52;2.80;;;2.60;;
19664;SDS011;9980;51.020;7.772;2024-03-23T02:25:18;2.90;;;2.70;;
19664;SDS011;9980;51.020;7.772;2024-03-23T02:27:44;2.77;;;2.57;;
19664;SDS011;9980;51.020;7.772;2024-03-23T02:30:10;2.47;;;2.30;;
19664;SDS011;9980;51.020;7.772;2024-03-23T02:32:37;2.70;;;2.50;;
19664;SDS011;9980;51.020;7.772;2024-03-23T02:35:03;2.37;;;2.00;;
19664;SDS011;9980;51.020;7.772;2024-03-23T02:37:30;2.13;;;2.03;;
19664;SDS011;9980;51.020;7.772;2024-03-23T02:39:56;4.10;;;2.17;;
19664;SDS011;9980;51.020;7.772;2024-03-23T02:42:22;2.40;;;2.20;;
19664;SDS011;9980;51.020;7.772;2024-03-23T02:44:47;2.27;;;2.17;;
19664;SDS011;9980;51.020;7.772;2024-03-23T02:47:14;2.50;;;2.30;;
19664;SDS011;9980;51.020;7.772;2024-03-23T02:49:40;2.17;;;2.00;;
19664;SDS011;9980;51.020;7.772;2024-03-23T02:52:06;3.43;;;2.43;;
19664;SDS011;9980;51.020;7.772;2024-03-23T02:54:32;2.00;;;1.90;;
19664;SDS011;9980;51.020;7.772;2024-03-23T02:56:58;2.47;;;2.30;;
19664;SDS011;9980;51.020;7.772;2024-03-23T02:59:24;3.43;;;2.43;;
19664;SDS011;9980;51.020;7.772;2024-03-23T03:01:50;2.40;;;2.20;;
19664;SDS011;9980;51.020;7.772;2024-03-23T03:04:16;3.57;;;2.30;;
19664;SDS011;9980;51.020;7.772;2024-03-23T03:06:42;2.30;;;2.10;;
19664;SDS011;9980;51.020;7.772;2024-03-23T03:09:12;2.47;;;2.30;;
19664;SDS011;9980;51.020;7.772;2024-03-23T03:11:38;2.27;;;2.17;;
19664;SDS011;9980;51.020;7.772;2024-03-23T03:14:04;2.60;;;2.40;;
19664;SDS011;9980;51.020;7.772;2024-03-23T03:16:32;2.93;;;2.60;;
19664;SDS011;9980;51.020;7.772;2024-03-23T03:18:58;2.60;;;2.40;;
19664;SDS011;9980;51.020;7.772;2024-03-23T03:21:24;2.60;;;2.40;;
19664;SDS011;9980;51.020;7.772;2024-03-23T03:23:50;3.83;;;2.57;;
19664;SDS011;9980;51.020;7.772;2024-03-23T03:26:17;2.70;;;2.50;;
19664;SDS011;9980;51.020;7.772;2024-03-23T03:28:43;2.70;;;2.50;;
19664;SDS011;9980;51.020;7.772;2024-03-23T03:31:17;2.30;;;2.20;;
19664;SDS011;9980;51.020;7.772;2024-03-23T03:33:43;1.90;;;1.80;;
19664;SDS011;9980;51.020;7.772;2024-03-23T03:36:10;2.00;;;1.90;;
19664;SDS011;9980;51.020;7.772;2024-03-23T03:38:36;2.07;;;1.97;;
19664;SDS011;9980;51.020;7.772;2024-03-23T03:41:03;2.00;;;1.90;;
19664;SDS011;9980;51.020;7.772;2024-03-23T03:43:31;2.00;;;1.83;;
19664;SDS011;9980;51.020;7.772;2024-03-23T03:45:58;1.90;;;1.80;;
19664;SDS011;9980;51.020;7.772;2024-03-23T03:48:26;2.00;;;1.90;;
19664;SDS011;9980;51.020;7.772;2024-03-23T03:50:52;2.20;;;2.10;;
19664;SDS011;9980;51.020;7.772;2024-03-23T03:53:19;2.37;;;2.17;;
19664;SDS011;9980;51.020;7.772;2024-03-23T03:55:45;2.37;;;2.10;;
19664;SDS011;9980;51.020;7.772;2024-03-23T03:58:11;2.30;;;2.20;;
19664;SDS011;9980;51.020;7.772;2024-03-23T04:00:37;2.30;;;2.10;;
19664;SDS011;9980;51.020;7.772;2024-03-23T04:03:04;2.97;;;2.50;;
19664;SDS011;9980;51.020;7.772;2024-03-23T04:05:30;2.47;;;2.23;;
19664;SDS011;9980;51.020;7.772;2024-03-23T04:07:56;2.50;;;2.30;;
19664;SDS011;9980;51.020;7.772;2024-03-23T04:10:22;2.20;;;2.10;;
19664;SDS011;9980;51.020;7.772;2024-03-23T04:12:48;2.40;;;2.30;;
19664;SDS011;9980;51.020;7.772;2024-03-23T04:15:14;2.70;;;2.50;;
19664;SDS011;9980;51.020;7.772;2024-03-23T04:17:40;2.70;;;2.50;;
19664;SDS011;9980;51.020;7.772;2024-03-23T04:20:08;2.60;;;2.40;;
19664;SDS011;9980;51.020;7.772;2024-03-23T04:22:36;2.30;;;2.10;;
19664;SDS011;9980;51.020;7.772;2024-03-23T04:25:03;2.23;;;2.00;;
19664;SDS011;9980;51.020;7.772;2024-03-23T04:27:32;3.90;;;2.40;;
19664;SDS011;9980;51.020;7.772;2024-03-23T04:29:59;2.90;;;2.10;;
19664;SDS011;9980;51.020;7.772;2024-03-23T04:32:29;3.80;;;2.47;;
19664;SDS011;9980;51.020;7.772;2024-03-23T04:34:55;2.80;;;2.37;;
19664;SDS011;9980;51.020;7.772;2024-03-23T04:37:21;3.60;;;2.30;;
19664;SDS011;9980;51.020;7.772;2024-03-23T04:39:48;7.73;;;2.77;;
19664;SDS011;9980;51.020;7.772;2024-03-23T04:42:17;3.77;;;2.70;;
19664;SDS011;9980;51.020;7.772;2024-03-23T04:44:43;3.03;;;2.60;;
19664;SDS011;9980;51.020;7.772;2024-03-23T04:47:10;2.90;;;2.60;;
19664;SDS011;9980;51.020;7.772;2024-03-23T04:49:37;3.43;;;3.13;;
19664;SDS011;9980;51.020;7.772;2024-03-23T04:52:04;3.83;;;2.60;;
19664;SDS011;9980;51.020;7.772;2024-03-23T04:54:30;2.50;;;2.30;;
19664;SDS011;9980;51.020;7.772;2024-03-23T04:56:59;4.03;;;3.20;;
19664;SDS011;9980;51.020;7.772;2024-03-23T04:59:25;4.67;;;2.80;;
19664;SDS011;9980;51.020;7.772;2024-03-23T05:01:51;4.43;;;2.60;;
19664;SDS011;9980;51.020;7.772;2024-03-23T05:04:17;4.90;;;2.90;;
19664;SDS011;9980;51.020;7.772;2024-03-23T05:06:43;5.13;;;2.80;;
19664;SDS011;9980;51.020;7.772;2024-03-23T05:09:09;3.73;;;2.87;;
19664;SDS011;9980;51.020;7.772;2024-03-23T05:11:40;5.23;;;3.00;;
19664;SDS011;9980;51.020;7.772;2024-03-23T05:14:10;6.63;;;3.43;;
19664;SDS011;9980;51.020;7.772;2024-03-23T05:16:40;4.03;;;3.40;;
19664;SDS011;9980;51.020;7.772;2024-03-23T05:19:06;3.27;;;2.97;;
19664;SDS011;9980;51.020;7.772;2024-03-23T05:21:32;6.20;;;3.30;;
19664;SDS011;9980;51.020;7.772;2024-03-23T05:23:58;5.27;;;3.20;;
19664;SDS011;9980;51.020;7.772;2024-03-23T05:26:24;3.97;;;3.17;;
19664;SDS011;9980;51.020;7.772;2024-03-23T05:28:50;3.90;;;3.60;;
19664;SDS011;9980;51.020;7.772;2024-03-23T05:31:26;3.83;;;3.27;;
19664;SDS011;9980;51.020;7.772;2024-03-23T05:33:54;5.07;;;3.83;;
19664;SDS011;9980;51.020;7.772;2024-03-23T05:36:20;4.83;;;3.57;;
19664;SDS011;9980;51.020;7.772;2024-03-23T05:38:47;5.53;;;3.67;;
19664;SDS011;9980;51.020;7.772;2024-03-23T05:41:13;6.70;;;3.57;;
19664;SDS011;9980;51.020;7.772;2024-03-23T05:43:39;4.00;;;3.53;;
19664;SDS011;9980;51.020;7.772;2024-03-23T05:46:05;4.07;;;3.67;;
19664;SDS011;9980;51.020;7.772;2024-03-23T05:48:31;6.50;;;3.97;;
19664;SDS011;9980;51.020;7.772;2024-03-23T05:50:57;4.90;;;3.60;;
19664;SDS011;9980;51.020;7.772;2024-03-23T05:53:23;4.70;;;3.67;;
19664;SDS011;9980;51.020;7.772;2024-03-23T05:55:50;6.23;;;3.80;;
19664;SDS011;9980;51.020;7.772;2024-03-23T05:58:25;5.50;;;4.23;;
19664;SDS011;9980;51.020;7.772;2024-03-23T06:00:56;6.00;;;4.30;;
19664;SDS011;9980;51.020;7.772;2024-03-23T06:03:24;7.43;;;4.70;;
19664;SDS011;9980;51.020;7.772;2024-03-23T06:05:51;5.37;;;4.13;;
19664;SDS011;9980;51.020;7.772;2024-03-23T06:08:18;7.07;;;4.50;;
19664;SDS011;9980;51.020;7.772;2024-03-23T06:10:45;7.70;;;4.83;;
19664;SDS011;9980;51.020;7.772;2024-03-23T06:13:12;7.17;;;5.20;;
19664;SDS011;9980;51.020;7.772;2024-03-23T06:15:38;8.33;;;5.00;;
19664;SDS011;9980;51.020;7.772;2024-03-23T06:18:04;6.43;;;4.73;;
19664;SDS011;9980;51.020;7.772;2024-03-23T06:20:33;7.20;;;5.27;;
19664;SDS011;9980;51.020;7.772;2024-03-23T06:23:02;7.60;;;5.80;;
19664;SDS011;9980;51.020;7.772;2024-03-23T06:25:29;7.97;;;5.10;;
19664;SDS011;9980;51.020;7.772;2024-03-23T06:27:55;8.73;;;4.90;;
19664;SDS011;9980;51.020;7.772;2024-03-23T06:30:21;6.60;;;4.50;;
19664;SDS011;9980;51.020;7.772;2024-03-23T06:32:47;10.47;;;5.30;;
19664;SDS011;9980;51.020;7.772;2024-03-23T06:35:13;7.93;;;4.90;;
19664;SDS011;9980;51.020;7.772;2024-03-23T06:37:39;11.60;;;5.63;;
19664;SDS011;9980;51.020;7.772;2024-03-23T06:40:06;10.80;;;5.50;;
19664;SDS011;9980;51.020;7.772;2024-03-23T06:42:35;6.80;;;5.87;;
19664;SDS011;9980;51.020;7.772;2024-03-23T06:45:02;10.80;;;5.93;;
19664;SDS011;9980;51.020;7.772;2024-03-23T06:47:30;9.10;;;5.87;;
19664;SDS011;9980;51.020;7.772;2024-03-23T06:49:56;15.43;;;6.13;;
19664;SDS011;9980;51.020;7.772;2024-03-23T06:52:22;10.07;;;6.77;;
19664;SDS011;9980;51.020;7.772;2024-03-23T06:54:48;8.60;;;6.30;;
19664;SDS011;9980;51.020;7.772;2024-03-23T06:57:14;10.87;;;6.70;;
19664;SDS011;9980;51.020;7.772;2024-03-23T06:59:40;9.13;;;6.70;;
19664;SDS011;9980;51.020;7.772;2024-03-23T07:02:06;8.10;;;7.27;;
19664;SDS011;9980;51.020;7.772;2024-03-23T07:04:34;10.43;;;6.73;;
19664;SDS011;9980;51.020;7.772;2024-03-23T07:07:01;10.70;;;7.20;;
19664;SDS011;9980;51.020;7.772;2024-03-23T07:09:29;11.07;;;7.57;;
19664;SDS011;9980;51.020;7.772;2024-03-23T07:11:58;8.03;;;7.17;;
19664;SDS011;9980;51.020;7.772;2024-03-23T07:14:24;6.63;;;6.00;;
19664;SDS011;9980;51.020;7.772;2024-03-23T07:16:51;6.83;;;6.23;;
19664;SDS011;9980;51.020;7.772;2024-03-23T07:19:17;8.47;;;6.57;;
19664;SDS011;9980;51.020;7.772;2024-03-23T07:21:46;8.47;;;7.23;;
19664;SDS011;9980;51.020;7.772;2024-03-23T07:24:13;8.33;;;7.50;;
19664;SDS011;9980;51.020;7.772;2024-03-23T07:26:39;7.20;;;6.13;;
19664;SDS011;9980;51.020;7.772;2024-03-23T07:29:06;7.70;;;6.13;;
19664;SDS011;9980;51.020;7.772;2024-03-23T07:31:32;6.03;;;5.57;;
19664;SDS011;9980;51.020;7.772;2024-03-23T07:33:58;6.13;;;5.67;;
19664;SDS011;9980;51.020;7.772;2024-03-23T07:36:24;5.80;;;5.30;;
19664;SDS011;9980;51.020;7.772;2024-03-23T07:38:51;9.60;;;6.43;;
19664;SDS011;9980;51.020;7.772;2024-03-23T07:41:20;8.20;;;6.90;;
19664;SDS011;9980;51.020;7.772;2024-03-23T07:43:46;7.97;;;6.83;;
19664;SDS011;9980;51.020;7.772;2024-03-23T07:46:14;13.63;;;8.77;;
19664;SDS011;9980;51.020;7.772;2024-03-23T07:48:41;10.27;;;8.63;;
19664;SDS011;9980;51.020;7.772;2024-03-23T07:51:08;12.70;;;8.03;;
19664;SDS011;9980;51.020;7.772;2024-03-23T07:53:37;13.43;;;8.60;;
19664;SDS011;9980;51.020;7.772;2024-03-23T07:56:07;13.17;;;9.70;;
19664;SDS011;9980;51.020;7.772;2024-03-23T07:58:36;12.27;;;9.40;;
19664;SDS011;9980;51.020;7.772;2024-03-23T08:01:13;20.73;;;14.30;;
19664;SDS011;9980;51.020;7.772;2024-03-23T08:03:41;18.37;;;10.47;;
19664;SDS011;9980;51.020;7.772;2024-03-23T08:06:14;16.03;;;9.60;;
19664;SDS011;9980;51.020;7.772;2024-03-23T08:08:44;15.87;;;9.33;;
19664;SDS011;9980;51.020;7.772;2024-03-23T08:11:11;14.73;;;8.67;;
19664;SDS011;9980;51.020;7.772;2024-03-23T08:13:41;10.67;;;8.43;;
19664;SDS011;9980;51.020;7.772;2024-03-23T08:16:10;12.50;;;8.23;;
19664;SDS011;9980;51.020;7.772;2024-03-23T08:18:37;12.37;;;8.33;;
19664;SDS011;9980;51.020;7.772;2024-03-23T08:21:03;12.60;;;7.93;;
19664;SDS011;9980;51.020;7.772;2024-03-23T08:23:31;15.60;;;8.33;;
19664;SDS011;9980;51.020;7.772;2024-03-23T08:26:01;12.87;;;8.30;;
19664;SDS011;9980;51.020;7.772;2024-03-23T08:28:29;14.77;;;8.57;;
19664;SDS011;9980;51.020;7.772;2024-03-23T08:30:55;12.83;;;8.87;;
19664;SDS011;9980;51.020;7.772;2024-03-23T08:33:22;10.83;;;8.37;;
19664;SDS011;9980;51.020;7.772;2024-03-23T08:35:54;13.13;;;7.80;;
19664;SDS011;9980;51.020;7.772;2024-03-23T08:38:22;12.50;;;8.40;;
19664;SDS011;9980;51.020;7.772;2024-03-23T08:43:35;13.83;;;8.87;;
19664;SDS011;9980;51.020;7.772;2024-03-23T08:46:07;10.20;;;8.97;;
19664;SDS011;9980;51.020;7.772;2024-03-23T08:48:42;14.03;;;8.53;;
19664;SDS011;9980;51.020;7.772;2024-03-23T08:51:14;16.17;;;7.90;;
19664;SDS011;9980;51.020;7.772;2024-03-23T08:53:42;11.73;;;8.97;;
19664;SDS011;9980;51.020;7.772;2024-03-23T08:56:09;14.73;;;9.70;;
19664;SDS011;9980;51.020;7.772;2024-03-23T08:58:36;15.50;;;8.63;;
19664;SDS011;9980;51.020;7.772;2024-03-23T09:03:32;11.53;;;8.73;;
19664;SDS011;9980;51.020;7.772;2024-03-23T09:05:59;11.40;;;8.63;;
19664;SDS011;9980;51.020;7.772;2024-03-23T09:08:25;11.17;;;8.00;;
19664;SDS011;9980;51.020;7.772;2024-03-23T09:10:51;12.60;;;8.33;;
19664;SDS011;9980;51.020;7.772;2024-03-23T09:13:18;14.63;;;8.30;;
19664;SDS011;9980;51.020;7.772;2024-03-23T09:15:47;9.60;;;8.13;;
19664;SDS011;9980;51.020;7.772;2024-03-23T09:18:16;10.50;;;8.20;;
19664;SDS011;9980;51.020;7.772;2024-03-23T09:20:42;14.03;;;7.73;;
19664;SDS011;9980;51.020;7.772;2024-03-23T09:23:09;11.17;;;7.43;;
19664;SDS011;9980;51.020;7.772;2024-03-23T09:25:38;8.73;;;6.60;;
19664;SDS011;9980;51.020;7.772;2024-03-23T09:28:05;14.20;;;7.80;;
19664;SDS011;9980;51.020;7.772;2024-03-23T09:30:34;9.93;;;7.40;;
19664;SDS011;9980;51.020;7.772;2024-03-23T09:33:01;13.03;;;7.87;;
19664;SDS011;9980;51.020;7.772;2024-03-23T09:35:28;10.53;;;7.17;;
19664;SDS011;9980;51.020;7.772;2024-03-23T09:37:54;8.43;;;7.47;;
19664;SDS011;9980;51.020;7.772;2024-03-23T09:40:20;12.80;;;7.17;;
19664;SDS011;9980;51.020;7.772;2024-03-23T09:42:50;15.57;;;8.30;;
19664;SDS011;9980;51.020;7.772;2024-03-23T09:45:38;11.43;;;6.80;;
19664;SDS011;9980;51.020;7.772;2024-03-23T09:48:06;9.83;;;6.40;;
19664;SDS011;9980;51.020;7.772;2024-03-23T09:50:42;10.53;;;6.97;;
19664;SDS011;9980;51.020;7.772;2024-03-23T09:53:14;8.33;;;6.97;;
19664;SDS011;9980;51.020;7.772;2024-03-23T09:55:41;12.40;;;6.20;;
19664;SDS011;9980;51.020;7.772;2024-03-23T09:58:13;11.50;;;5.90;;
19664;SDS011;9980;51.020;7.772;2024-03-23T10:00:43;9.97;;;5.37;;
19664;SDS011;9980;51.020;7.772;2024-03-23T10:03:10;6.53;;;4.50;;
19664;SDS011;9980;51.020;7.772;2024-03-23T10:05:37;12.90;;;5.30;;
19664;SDS011;9980;51.020;7.772;2024-03-23T10:10:41;4.77;;;3.80;;
19664;SDS011;9980;51.020;7.772;2024-03-23T10:13:08;6.70;;;4.90;;
19664;SDS011;9980;51.020;7.772;2024-03-23T10:15:35;6.60;;;4.43;;
19664;SDS011;9980;51.020;7.772;2024-03-23T10:18:17;6.87;;;4.80;;
19664;SDS011;9980;51.020;7.772;2024-03-23T10:20:51;5.97;;;4.43;;
19664;SDS011;9980;51.020;7.772;2024-03-23T10:23:39;9.40;;;5.03;;
19664;SDS011;9980;51.020;7.772;2024-03-23T10:26:18;6.43;;;4.70;;
19664;SDS011;9980;51.020;7.772;2024-03-23T10:31:33;7.07;;;4.43;;
19664;SDS011;9980;51.020;7.772;2024-03-23T10:34:03;4.50;;;3.33;;
19664;SDS011;9980;51.020;7.772;2024-03-23T10:36:29;5.30;;;3.80;;
19664;SDS011;9980;51.020;7.772;2024-03-23T10:38:56;3.63;;;3.27;;
19664;SDS011;9980;51.020;7.772;2024-03-23T10:41:26;11.10;;;4.30;;
19664;SDS011;9980;51.020;7.772;2024-03-23T10:43:57;6.00;;;3.60;;
19664;SDS011;9980;51.020;7.772;2024-03-23T10:46:25;5.80;;;4.73;;
19664;SDS011;9980;51.020;7.772;2024-03-23T10:48:51;5.40;;;3.80;;
19664;SDS011;9980;51.020;7.772;2024-03-23T10:51:17;7.47;;;4.47;;
19664;SDS011;9980;51.020;7.772;2024-03-23T10:53:43;7.33;;;5.03;;
19664;SDS011;9980;51.020;7.772;2024-03-23T10:56:12;6.23;;;4.20;;
19664;SDS011;9980;51.020;7.772;2024-03-23T10:58:42;6.80;;;4.10;;
19664;SDS011;9980;51.020;7.772;2024-03-23T11:01:13;6.00;;;4.47;;
19664;SDS011;9980;51.020;7.772;2024-03-23T11:03:40;6.00;;;4.30;;
19664;SDS011;9980;51.020;7.772;2024-03-23T11:06:34;6.43;;;4.00;;
19664;SDS011;9980;51.020;7.772;2024-03-23T11:09:38;6.83;;;4.33;;
19664;SDS011;9980;51.020;7.772;2024-03-23T11:14:58;6.03;;;4.17;;
19664;SDS011;9980;51.020;7.772;2024-03-23T11:17:25;5.00;;;3.40;;
19664;SDS011;9980;51.020;7.772;2024-03-23T11:19:53;8.10;;;4.30;;
19664;SDS011;9980;51.020;7.772;2024-03-23T11:25:19;7.33;;;3.10;;
19664;SDS011;9980;51.020;7.772;2024-03-23T11:27:47;5.50;;;3.27;;
19664;SDS011;9980;51.020;7.772;2024-03-23T11:30:22;8.20;;;3.17;;
19664;SDS011;9980;51.020;7.772;2024-03-23T11:32:50;8.60;;;3.30;;
19664;SDS011;9980;51.020;7.772;2024-03-23T11:35:26;4.47;;;3.20;;
19664;SDS011;9980;51.020;7.772;2024-03-23T11:40:45;6.13;;;2.60;;
19664;SDS011;9980;51.020;7.772;2024-03-23T11:43:14;4.80;;;3.17;;
19664;SDS011;9980;51.020;7.772;2024-03-23T11:45:48;15.90;;;14.27;;
19664;SDS011;9980;51.020;7.772;2024-03-23T11:48:18;8.40;;;7.60;;
19664;SDS011;9980;51.020;7.772;2024-03-23T11:50:48;5.63;;;4.47;;
19664;SDS011;9980;51.020;7.772;2024-03-23T11:53:25;3.07;;;2.70;;
19664;SDS011;9980;51.020;7.772;2024-03-23T11:55:56;2.53;;;2.20;;
19664;SDS011;9980;51.020;7.772;2024-03-23T11:58:25;3.83;;;3.07;;
19664;SDS011;9980;51.020;7.772;2024-03-23T12:00:59;5.27;;;2.70;;
19664;SDS011;9980;51.020;7.772;2024-03-23T12:03:28;4.20;;;2.93;;
19664;SDS011;9980;51.020;7.772;2024-03-23T12:05:58;4.13;;;2.77;;
19664;SDS011;9980;51.020;7.772;2024-03-23T12:08:34;3.07;;;2.57;;
19664;SDS011;9980;51.020;7.772;2024-03-23T12:11:13;5.97;;;3.10;;
19664;SDS011;9980;51.020;7.772;2024-03-23T12:13:44;2.70;;;2.50;;
19664;SDS011;9980;51.020;7.772;2024-03-23T12:16:15;2.70;;;2.50;;
19664;SDS011;9980;51.020;7.772;2024-03-23T12:18:46;3.10;;;2.90;;
19664;SDS011;9980;51.020;7.772;2024-03-23T12:21:14;3.33;;;2.50;;
19664;SDS011;9980;51.020;7.772;2024-03-23T12:23:42;2.90;;;2.70;;
19664;SDS011;9980;51.020;7.772;2024-03-23T12:26:13;2.40;;;2.30;;
19664;SDS011;9980;51.020;7.772;2024-03-23T12:28:41;2.70;;;2.50;;
19664;SDS011;9980;51.020;7.772;2024-03-23T12:31:07;2.63;;;2.53;;
19664;SDS011;9980;51.020;7.772;2024-03-23T12:33:32;2.43;;;2.27;;
19664;SDS011;9980;51.020;7.772;2024-03-23T12:35:58;2.37;;;2.17;;
19664;SDS011;9980;51.020;7.772;2024-03-23T12:38:24;7.30;;;6.10;;
19664;SDS011;9980;51.020;7.772;2024-03-23T12:40:50;12.73;;;9.23;;
19664;SDS011;9980;51.020;7.772;2024-03-23T12:43:17;10.73;;;9.43;;
19664;SDS011;9980;51.020;7.772;2024-03-23T12:45:49;8.27;;;7.47;;
19664;SDS011;9980;51.020;7.772;2024-03-23T12:48:16;7.63;;;7.03;;
19664;SDS011;9980;51.020;7.772;2024-03-23T12:50:42;5.37;;;4.90;;
19664;SDS011;9980;51.020;7.772;2024-03-23T12:53:08;5.90;;;5.50;;
19664;SDS011;9980;51.020;7.772;2024-03-23T12:55:37;9.10;;;8.23;;
19664;SDS011;9980;51.020;7.772;2024-03-23T12:58:03;5.27;;;4.77;;
19664;SDS011;9980;51.020;7.772;2024-03-23T13:00:30;3.60;;;3.40;;
19664;SDS011;9980;51.020;7.772;2024-03-23T13:02:56;3.00;;;2.70;;
19664;SDS011;9980;51.020;7.772;2024-03-23T13:05:22;2.53;;;2.33;;
19664;SDS011;9980;51.020;7.772;2024-03-23T13:07:48;3.13;;;2.67;;
19664;SDS011;9980;51.020;7.772;2024-03-23T13:10:14;2.50;;;2.40;;
19664;SDS011;9980;51.020;7.772;2024-03-23T13:12:41;2.30;;;2.20;;
19664;SDS011;9980;51.020;7.772;2024-03-23T13:15:08;2.70;;;2.50;;
19664;SDS011;9980;51.020;7.772;2024-03-23T13:17:34;4.03;;;2.60;;
19664;SDS011;9980;51.020;7.772;2024-03-23T13:20:00;2.90;;;2.60;;
19664;SDS011;9980;51.020;7.772;2024-03-23T13:22:26;3.10;;;2.80;;
19664;SDS011;9980;51.020;7.772;2024-03-23T13:24:52;2.93;;;2.70;;
19664;SDS011;9980;51.020;7.772;2024-03-23T13:27:18;2.70;;;2.60;;
19664;SDS011;9980;51.020;7.772;2024-03-23T13:29:44;3.07;;;2.80;;
19664;SDS011;9980;51.020;7.772;2024-03-23T13:32:12;3.80;;;2.53;;
19664;SDS011;9980;51.020;7.772;2024-03-23T13:34:38;3.80;;;2.47;;
19664;SDS011;9980;51.020;7.772;2024-03-23T13:37:05;2.57;;;2.37;;
19664;SDS011;9980;51.020;7.772;2024-03-23T13:39:32;2.37;;;2.23;;
19664;SDS011;9980;51.020;7.772;2024-03-23T13:41:58;4.17;;;2.50;;
19664;SDS011;9980;51.020;7.772;2024-03-23T13:44:24;2.50;;;2.30;;
19664;SDS011;9980;51.020;7.772;2024-03-23T13:46:51;2.40;;;2.20;;
19664;SDS011;9980;51.020;7.772;2024-03-23T13:49:30;2.47;;;2.27;;
19664;SDS011;9980;51.020;7.772;2024-03-23T13:51:57;2.03;;;1.93;;
19664;SDS011;9980;51.020;7.772;2024-03-23T13:54:27;2.63;;;2.13;;
19664;SDS011;9980;51.020;7.772;2024-03-23T13:56:54;2.20;;;2.10;;
19664;SDS011;9980;51.020;7.772;2024-03-23T13:59:22;2.30;;;2.10;;
19664;SDS011;9980;51.020;7.772;2024-03-23T14:01:48;2.90;;;2.10;;
19664;SDS011;9980;51.020;7.772;2024-03-23T14:04:16;2.37;;;2.20;;
19664;SDS011;9980;51.020;7.772;2024-03-23T14:06:42;2.33;;;2.13;;
19664;SDS011;9980;51.020;7.772;2024-03-23T14:09:14;2.20;;;2.00;;
19664;SDS011;9980;51.020;7.772;2024-03-23T14:11:45;4.87;;;2.40;;
19664;SDS011;9980;51.020;7.772;2024-03-23T14:14:12;4.37;;;2.13;;
19664;SDS011;9980;51.020;7.772;2024-03-23T14:16:40;5.33;;;2.23;;
19664;SDS011;9980;51.020;7.772;2024-03-23T14:19:06;2.57;;;2.37;;
19664;SDS011;9980;51.020;7.772;2024-03-23T14:21:32;2.80;;;2.53;;
19664;SDS011;9980;51.020;7.772;2024-03-23T14:24:00;3.33;;;2.47;;
19664;SDS011;9980;51.020;7.772;2024-03-23T14:26:26;5.33;;;4.83;;
19664;SDS011;9980;51.020;7.772;2024-03-23T14:28:53;3.50;;;3.10;;
19664;SDS011;9980;51.020;7.772;2024-03-23T14:31:19;3.00;;;2.80;;
19664;SDS011;9980;51.020;7.772;2024-03-23T14:33:45;4.03;;;2.90;;
19664;SDS011;9980;51.020;7.772;2024-03-23T14:36:12;7.43;;;5.40;;
19664;SDS011;9980;51.020;7.772;2024-03-23T14:38:39;6.27;;;5.13;;
19664;SDS011;9980;51.020;7.772;2024-03-23T14:41:05;3.17;;;2.97;;
19664;SDS011;9980;51.020;7.772;2024-03-23T14:43:31;4.77;;;3.77;;
19664;SDS011;9980;51.020;7.772;2024-03-23T14:46:10;4.40;;;3.27;;
19664;SDS011;9980;51.020;7.772;2024-03-23T14:48:44;3.00;;;2.73;;
19664;SDS011;9980;51.020;7.772;2024-03-23T14:51:11;5.83;;;3.10;;
19664;SDS011;9980;51.020;7.772;2024-03-23T14:53:40;3.43;;;2.90;;
19664;SDS011;9980;51.020;7.772;2024-03-23T14:56:10;3.60;;;2.43;;
19664;SDS011;9980;51.020;7.772;2024-03-23T14:58:38;7.17;;;4.60;;
19664;SDS011;9980;51.020;7.772;2024-03-23T15:01:05;6.60;;;5.33;;
19664;SDS011;9980;51.020;7.772;2024-03-23T15:03:35;22.53;;;13.37;;
19664;SDS011;9980;51.020;7.772;2024-03-23T15:06:05;6.60;;;5.07;;
19664;SDS011;9980;51.020;7.772;2024-03-23T15:08:34;4.33;;;3.50;;
19664;SDS011;9980;51.020;7.772;2024-03-23T15:11:00;4.07;;;3.57;;
19664;SDS011;9980;51.020;7.772;2024-03-23T15:13:34;6.23;;;5.07;;
19664;SDS011;9980;51.020;7.772;2024-03-23T15:16:01;13.43;;;9.03;;
19664;SDS011;9980;51.020;7.772;2024-03-23T15:18:30;6.00;;;5.30;;
19664;SDS011;9980;51.020;7.772;2024-03-23T15:21:01;5.20;;;4.80;;
19664;SDS011;9980;51.020;7.772;2024-03-23T15:23:31;4.40;;;4.00;;
19664;SDS011;9980;51.020;7.772;2024-03-23T15:25:58;6.30;;;5.70;;
19664;SDS011;9980;51.020;7.772;2024-03-23T15:28:26;4.20;;;3.90;;
19664;SDS011;9980;51.020;7.772;2024-03-23T15:31:08;4.00;;;3.60;;
19664;SDS011;9980;51.020;7.772;2024-03-23T15:33:35;4.67;;;3.60;;
19664;SDS011;9980;51.020;7.772;2024-03-23T15:36:02;6.73;;;4.93;;
19664;SDS011;9980;51.020;7.772;2024-03-23T15:38:29;6.63;;;5.93;;
19664;SDS011;9980;51.020;7.772;2024-03-23T15:40:57;19.33;;;14.00;;
19664;SDS011;9980;51.020;7.772;2024-03-23T15:43:24;10.10;;;7.40;;
19664;SDS011;9980;51.020;7.772;2024-03-23T15:45:53;5.70;;;5.20;;
19664;SDS011;9980;51.020;7.772;2024-03-23T15:48:27;4.20;;;3.80;;
19664;SDS011;9980;51.020;7.772;2024-03-23T15:50:54;4.40;;;3.43;;
19664;SDS011;9980;51.020;7.772;2024-03-23T15:53:26;4.20;;;3.00;;
19664;SDS011;9980;51.020;7.772;2024-03-23T15:55:54;4.10;;;3.30;;
19664;SDS011;9980;51.020;7.772;2024-03-23T15:58:20;3.00;;;2.80;;
19664;SDS011;9980;51.020;7.772;2024-03-23T16:01:00;2.77;;;2.57;;
19664;SDS011;9980;51.020;7.772;2024-03-23T16:03:31;3.23;;;3.03;;
19664;SDS011;9980;51.020;7.772;2024-03-23T16:06:02;3.60;;;2.67;;
19664;SDS011;9980;51.020;7.772;2024-03-23T16:08:31;3.80;;;3.20;;
19664;SDS011;9980;51.020;7.772;2024-03-23T16:11:00;2.83;;;2.63;;
19664;SDS011;9980;51.020;7.772;2024-03-23T16:13:31;2.83;;;2.70;;
19664;SDS011;9980;51.020;7.772;2024-03-23T16:16:00;4.03;;;2.80;;